Time;durP1;ratioP1;P1;durP2;ratioP2;P2;SDS_P1;SDS_P2;PMS_P1;PMS_P2;Temp;Humidity;BMP_temperature;BMP_pressure;BME280_temperature;BME280_humidity;BME280_pressure;Samples;Min_cycle;Max_cycle;Signal;HPM_P1;HPM_P2
2021/11/20 00:01:42;;;;;;;;;;;5.40;99.90;;;;;;5093106;28;20362;-52
2021/11/20 00:04:09;;;;;;;;;;;5.50;99.90;;;;;;5093672;28;19940;-52
2021/11/20 00:06:37;;;;;;;;;;;5.50;99.90;;;;;;5093752;28;19932;-53
2021/11/20 00:09:05;;;;;;;;;;;5.60;99.90;;;;;;5092436;28;19932;-53
2021/11/20 00:11:33;;;;;;;;;;;5.40;99.90;;;;;;5092153;28;19977;-52
2021/11/20 00:14:00;;;;;;;;;;;5.40;99.90;;;;;;5092905;28;19924;-52
2021/11/20 00:16:27;;;;;;;;;;;5.40;99.90;;;;;;5092278;28;19939;-52
2021/11/20 00:18:55;;;;;;;;;;;5.40;99.90;;;;;;5082429;28;20345;-52
2021/11/20 00:21:24;;;;;;;;;;;5.20;99.90;;;;;;5093056;28;20275;-53
2021/11/20 00:23:51;;;;;;;;;;;5.20;99.90;;;;;;5092984;28;20385;-52
2021/11/20 00:26:19;;;;;;;;;;;5.30;99.90;;;;;;5092659;28;19925;-52
2021/11/20 00:29:06;;;;;;;;;;;5.40;99.90;;;;;;5092443;28;19983;-52
2021/11/20 00:31:34;;;;;;;;;;;5.40;99.90;;;;;;5084966;28;20374;-54
2021/11/20 00:34:03;;;;;;;;;;;5.40;99.90;;;;;;5085205;28;19931;-53
2021/11/20 00:36:30;;;;;;;;;;;5.30;99.90;;;;;;5091142;28;19924;-54
2021/11/20 00:38:56;;;;;;;;;;;5.30;99.90;;;;;;5091989;28;19928;-53
2021/11/20 00:41:25;;;;;;;;;;;5.20;99.90;;;;;;5088145;28;19928;-52
2021/11/20 00:43:53;;;;;;;;;;;5.10;99.90;;;;;;5091058;28;20489;-52
2021/11/20 00:46:38;;;;;;;;;;;5.40;99.90;;;;;;5092993;28;19927;-52
2021/11/20 00:49:07;;;;;;;;;;;5.30;99.90;;;;;;5092621;28;19928;-53
2021/11/20 00:51:34;;;;;;;;;;;5.30;99.90;;;;;;5091378;28;19924;-53
2021/11/20 00:54:02;;;;;;;;;;;5.30;99.90;;;;;;5087471;28;19982;-53
2021/11/20 00:56:29;;;;;;;;;;;5.20;99.90;;;;;;5090045;28;20012;-53
2021/11/20 00:58:56;;;;;;;;;;;5.30;99.90;;;;;;5081411;28;19928;-51
2021/11/20 01:01:25;;;;;;;;;;;5.30;99.90;;;;;;5083375;28;19924;-52
2021/11/20 01:03:53;;;;;;;;;;;5.30;99.90;;;;;;5091244;28;19951;-54
2021/11/20 01:06:21;;;;;;;;;;;5.20;99.90;;;;;;5092024;28;19931;-53
2021/11/20 01:08:49;;;;;;;;;;;5.30;99.90;;;;;;5091156;28;19985;-53
2021/11/20 01:11:20;;;;;;;;;;;5.10;99.90;;;;;;5090424;28;19993;-53
2021/11/20 01:13:48;;;;;;;;;;;5.00;99.90;;;;;;5091421;28;19934;-53
2021/11/20 01:16:15;;;;;;;;;;;5.10;99.90;;;;;;5092179;28;19930;-54
2021/11/20 01:18:42;;;;;;;;;;;5.10;99.90;;;;;;5080761;28;20376;-53
2021/11/20 01:21:09;;;;;;;;;;;5.10;99.90;;;;;;5091463;28;19985;-53
2021/11/20 01:23:39;;;;;;;;;;;5.10;99.90;;;;;;5091247;28;20389;-53
2021/11/20 01:26:07;;;;;;;;;;;5.10;99.90;;;;;;5089508;28;20018;-52
2021/11/20 01:28:37;;;;;;;;;;;5.10;99.90;;;;;;5091590;28;19932;-54
2021/11/20 01:31:07;;;;;;;;;;;4.90;99.90;;;;;;5091342;28;19931;-52
2021/11/20 01:33:35;;;;;;;;;;;5.10;99.90;;;;;;5077354;28;19939;-53
2021/11/20 01:36:02;;;;;;;;;;;5.10;99.90;;;;;;5092228;28;19924;-53
2021/11/20 01:38:29;;;;;;;;;;;5.10;99.90;;;;;;5091961;28;19940;-53
2021/11/20 01:40:57;;;;;;;;;;;5.10;99.90;;;;;;5091093;28;20279;-54
2021/11/20 01:43:24;;;;;;;;;;;4.90;99.90;;;;;;5090946;28;19978;-54
2021/11/20 01:45:52;;;;;;;;;;;4.70;99.90;;;;;;5091771;28;19931;-52
2021/11/20 01:48:35;;;;;;;;;;;4.80;99.90;;;;;;5091129;28;20418;-54
2021/11/20 01:51:03;;;;;;;;;;;4.80;99.90;;;;;;5091792;28;19924;-53
2021/11/20 01:53:32;;;;;;;;;;;4.70;99.90;;;;;;5091981;28;19924;-53
2021/11/20 01:56:03;;;;;;;;;;;4.70;99.90;;;;;;5091382;28;19989;-53
2021/11/20 01:58:32;;;;;;;;;;;4.70;99.90;;;;;;5091183;28;20317;-52
2021/11/20 02:01:01;;;;;;;;;;;4.60;99.90;;;;;;5090774;28;19969;-54
2021/11/20 02:03:29;;;;;;;;;;;4.80;99.90;;;;;;5094214;28;20394;-54
2021/11/20 02:05:59;;;;;;;;;;;4.80;99.90;;;;;;5095645;28;19939;-53
2021/11/20 02:08:28;;;;;;;;;;;4.80;99.90;;;;;;5095510;28;20301;-53
2021/11/20 02:10:56;;;;;;;;;;;4.90;99.90;;;;;;5094616;28;20386;-53
2021/11/20 02:13:26;;;;;;;;;;;4.80;99.90;;;;;;5094984;28;20460;-53
2021/11/20 02:15:55;;;;;;;;;;;4.80;99.90;;;;;;5094706;28;19924;-54
2021/11/20 02:18:23;;;;;;;;;;;4.90;99.90;;;;;;5095121;28;19969;-54
2021/11/20 02:20:52;;;;;;;;;;;4.80;99.90;;;;;;5094639;28;19932;-54
2021/11/20 02:23:19;;;;;;;;;;;4.80;99.90;;;;;;5095775;28;19969;-54
2021/11/20 02:25:46;;;;;;;;;;;4.90;99.90;;;;;;5096664;28;19970;-53
2021/11/20 02:28:14;;;;;;;;;;;4.80;99.90;;;;;;5096959;28;19950;-53
2021/11/20 02:30:42;;;;;;;;;;;4.80;99.90;;;;;;5094784;28;20386;-53
2021/11/20 02:33:10;;;;;;;;;;;4.80;99.90;;;;;;5094424;28;19977;-53
2021/11/20 02:35:39;;;;;;;;;;;4.80;99.90;;;;;;5094327;28;19985;-53
2021/11/20 02:38:09;;;;;;;;;;;4.90;99.90;;;;;;5094906;28;19927;-53
2021/11/20 02:40:36;;;;;;;;;;;4.80;99.90;;;;;;5094451;28;19924;-53
2021/11/20 02:43:03;;;;;;;;;;;4.80;99.90;;;;;;5089336;28;19928;-53
2021/11/20 02:45:31;;;;;;;;;;;4.70;99.90;;;;;;5094602;28;19985;-54
2021/11/20 02:48:00;;;;;;;;;;;4.70;99.90;;;;;;5094478;28;19924;-54
2021/11/20 02:50:32;;;;;;;;;;;4.70;99.90;;;;;;5094723;28;20027;-53
2021/11/20 02:52:58;;;;;;;;;;;4.80;99.90;;;;;;5094509;28;20021;-54
2021/11/20 02:55:26;;;;;;;;;;;4.90;99.90;;;;;;5093857;28;19924;-53
2021/11/20 02:57:52;;;;;;;;;;;5.00;99.90;;;;;;5094619;28;19924;-54
2021/11/20 03:00:20;;;;;;;;;;;5.00;99.90;;;;;;5094135;28;19924;-53
2021/11/20 03:02:47;;;;;;;;;;;5.10;99.90;;;;;;5094529;28;19985;-53
2021/11/20 03:05:15;;;;;;;;;;;5.10;99.90;;;;;;5094303;28;19924;-53
2021/11/20 03:07:42;;;;;;;;;;;5.20;99.90;;;;;;5094586;28;19924;-52
2021/11/20 03:10:09;;;;;;;;;;;5.10;99.90;;;;;;5093844;28;19986;-53
2021/11/20 03:12:36;;;;;;;;;;;4.90;99.90;;;;;;5094166;28;19924;-53
2021/11/20 03:15:04;;;;;;;;;;;5.00;99.90;;;;;;5092533;28;19977;-53
2021/11/20 03:17:31;;;;;;;;;;;5.10;99.90;;;;;;5093849;28;19924;-53
2021/11/20 03:19:58;;;;;;;;;;;5.00;99.90;;;;;;5093781;28;20397;-53
2021/11/20 03:22:29;;;;;;;;;;;5.00;99.90;;;;;;5093856;28;19924;-53
2021/11/20 03:24:56;;;;;;;;;;;5.00;99.90;;;;;;5093844;28;19924;-53
2021/11/20 03:27:22;;;;;;;;;;;5.10;99.90;;;;;;5093389;28;20347;-52
2021/11/20 03:29:50;;;;;;;;;;;5.20;99.90;;;;;;5093326;28;20451;-53
2021/11/20 03:32:18;;;;;;;;;;;5.20;99.90;;;;;;5093991;28;19947;-53
2021/11/20 03:34:45;;;;;;;;;;;5.10;99.90;;;;;;5090074;28;19970;-53
2021/11/20 03:37:12;;;;;;;;;;;5.10;99.90;;;;;;5093432;28;19928;-53
2021/11/20 03:39:41;;;;;;;;;;;5.10;99.90;;;;;;5093565;28;20279;-53
2021/11/20 03:42:08;;;;;;;;;;;5.20;99.90;;;;;;5093209;28;20363;-53
2021/11/20 03:44:35;;;;;;;;;;;5.00;99.90;;;;;;5092966;28;20619;-53
2021/11/20 03:47:02;;;;;;;;;;;5.00;99.90;;;;;;5093174;28;19977;-53
2021/11/20 03:49:30;;;;;;;;;;;4.90;99.90;;;;;;5092910;28;19977;-54
2021/11/20 03:51:57;;;;;;;;;;;5.00;99.90;;;;;;5093196;28;19970;-53
2021/11/20 03:54:24;;;;;;;;;;;5.00;99.90;;;;;;5092699;28;19924;-53
2021/11/20 03:56:52;;;;;;;;;;;5.20;99.90;;;;;;5093552;28;19928;-53
2021/11/20 03:59:19;;;;;;;;;;;5.10;99.90;;;;;;5093174;28;19924;-53
2021/11/20 04:01:46;;;;;;;;;;;5.00;99.90;;;;;;5114934;22;19931;-52
2021/11/20 04:04:13;;;;;;;;;;;4.90;99.90;;;;;;5092574;28;19928;-52
2021/11/20 04:06:39;;;;;;;;;;;5.00;99.90;;;;;;5092909;28;19928;-52
2021/11/20 04:09:12;;;;;;;;;;;4.90;99.90;;;;;;5092533;28;19931;-52
2021/11/20 04:11:40;;;;;;;;;;;4.90;99.90;;;;;;5105231;28;20274;-52
2021/11/20 04:14:09;;;;;;;;;;;4.90;99.90;;;;;;5097242;28;20370;-51
2021/11/20 04:16:35;;;;;;;;;;;4.80;99.90;;;;;;5092900;28;19927;-51
2021/11/20 04:19:03;;;;;;;;;;;5.00;99.90;;;;;;5098791;28;20401;-52
2021/11/20 04:21:29;;;;;;;;;;;4.90;99.90;;;;;;5096577;28;19928;-52
2021/11/20 04:23:57;;;;;;;;;;;4.80;99.90;;;;;;5089496;28;19978;-52
2021/11/20 04:26:24;;;;;;;;;;;4.80;99.90;;;;;;5092053;28;19928;-51
2021/11/20 04:28:51;;;;;;;;;;;4.80;99.90;;;;;;5094489;28;19924;-51
2021/11/20 04:31:20;;;;;;;;;;;4.80;99.90;;;;;;5099469;28;19928;-52
2021/11/20 04:33:48;;;;;;;;;;;4.50;99.90;;;;;;5087580;28;19924;-52
2021/11/20 04:36:15;;;;;;;;;;;4.50;99.90;;;;;;5092176;28;20429;-52
2021/11/20 04:38:43;;;;;;;;;;;4.60;99.90;;;;;;5101872;28;19927;-53
2021/11/20 04:41:10;;;;;;;;;;;4.80;99.90;;;;;;5092531;28;19977;-50
2021/11/20 04:43:36;;;;;;;;;;;4.70;99.90;;;;;;5104835;28;19923;-52
2021/11/20 04:46:03;;;;;;;;;;;4.80;99.90;;;;;;5105385;28;19969;-52
2021/11/20 04:48:31;;;;;;;;;;;4.70;99.90;;;;;;5095086;28;20650;-52
2021/11/20 04:50:59;;;;;;;;;;;4.70;99.90;;;;;;5092123;28;20420;-51
2021/11/20 04:53:26;;;;;;;;;;;4.80;99.90;;;;;;5100072;28;19969;-51
2021/11/20 04:55:56;;;;;;;;;;;4.90;99.90;;;;;;5112364;28;19989;-52
2021/11/20 04:58:23;;;;;;;;;;;4.80;99.90;;;;;;5112700;28;19931;-51
2021/11/20 05:00:51;;;;;;;;;;;4.60;99.90;;;;;;5111773;28;19927;-51
2021/11/20 05:03:18;;;;;;;;;;;4.70;99.90;;;;;;5112194;28;19924;-50
2021/11/20 05:05:47;;;;;;;;;;;4.70;99.90;;;;;;5097267;28;19924;-52
2021/11/20 05:08:15;;;;;;;;;;;4.70;99.90;;;;;;5090891;28;20344;-51
2021/11/20 05:10:42;;;;;;;;;;;4.70;99.90;;;;;;5100008;28;19923;-52
2021/11/20 05:13:09;;;;;;;;;;;4.50;99.90;;;;;;5112137;28;19949;-53
2021/11/20 05:15:37;;;;;;;;;;;4.50;99.90;;;;;;5112432;28;20427;-51
2021/11/20 05:18:05;;;;;;;;;;;4.50;99.90;;;;;;5112670;28;19944;-52
2021/11/20 05:20:31;;;;;;;;;;;4.40;99.90;;;;;;5106463;28;20275;-51
2021/11/20 05:23:00;;;;;;;;;;;4.20;99.90;;;;;;5108846;28;20279;-51
2021/11/20 05:25:27;;;;;;;;;;;4.30;99.90;;;;;;5091506;28;19924;-49
2021/11/20 05:27:54;;;;;;;;;;;4.40;99.90;;;;;;5091793;28;20470;-50
2021/11/20 05:30:26;;;;;;;;;;;4.40;99.90;;;;;;5091650;28;20455;-49
2021/11/20 05:32:53;;;;;;;;;;;4.50;99.90;;;;;;5091948;28;19928;-49
2021/11/20 05:35:20;;;;;;;;;;;4.40;99.90;;;;;;5105077;28;19923;-50
2021/11/20 05:37:47;;;;;;;;;;;4.40;99.90;;;;;;5112780;28;19924;-49
2021/11/20 05:40:16;;;;;;;;;;;4.40;99.90;;;;;;5107926;28;20352;-51
2021/11/20 05:42:43;;;;;;;;;;;4.50;99.90;;;;;;5095746;28;20340;-48
2021/11/20 05:45:10;;;;;;;;;;;4.40;99.90;;;;;;5116071;28;19928;-50
2021/11/20 05:47:36;;;;;;;;;;;4.10;99.90;;;;;;5108803;28;20271;-49
2021/11/20 05:50:04;;;;;;;;;;;4.10;99.90;;;;;;5115148;28;19927;-50
2021/11/20 05:52:31;;;;;;;;;;;4.20;99.90;;;;;;5115558;28;19968;-48
2021/11/20 05:54:58;;;;;;;;;;;4.30;99.90;;;;;;5114970;28;20382;-51
2021/11/20 05:57:26;;;;;;;;;;;4.60;99.90;;;;;;5094530;28;20389;-49
2021/11/20 05:59:53;;;;;;;;;;;4.40;99.90;;;;;;5096193;28;19973;-48
2021/11/20 06:02:20;;;;;;;;;;;4.30;99.90;;;;;;5098125;28;19977;-50
2021/11/20 06:04:47;;;;;;;;;;;4.40;99.90;;;;;;5104277;28;19924;-49
2021/11/20 06:07:13;;;;;;;;;;;4.40;99.90;;;;;;5102123;28;19981;-49
2021/11/20 06:09:40;;;;;;;;;;;4.50;99.90;;;;;;5095411;28;20315;-50
2021/11/20 06:12:08;;;;;;;;;;;4.50;99.90;;;;;;5095182;28;19924;-49
2021/11/20 06:14:36;;;;;;;;;;;4.50;99.90;;;;;;5096213;28;19977;-50
2021/11/20 06:17:03;;;;;;;;;;;4.50;99.90;;;;;;5098950;28;20347;-50
2021/11/20 06:19:30;;;;;;;;;;;4.50;99.90;;;;;;5115257;28;19924;-49
2021/11/20 06:21:57;;;;;;;;;;;4.40;99.90;;;;;;5101744;28;19924;-50
2021/11/20 06:24:23;;;;;;;;;;;4.50;99.90;;;;;;5095302;28;19961;-49
2021/11/20 06:26:50;;;;;;;;;;;4.50;99.90;;;;;;5095248;28;19973;-50
2021/11/20 06:29:17;;;;;;;;;;;4.50;99.90;;;;;;5096118;28;20449;-50
2021/11/20 06:31:47;;;;;;;;;;;4.50;99.90;;;;;;5095629;28;20319;-49
2021/11/20 06:34:14;;;;;;;;;;;4.50;99.90;;;;;;5095343;28;20420;-49
2021/11/20 06:36:41;;;;;;;;;;;4.50;99.90;;;;;;5101300;28;19924;-51
2021/11/20 06:39:08;;;;;;;;;;;4.50;99.90;;;;;;5094532;28;19954;-50
2021/11/20 06:41:34;;;;;;;;;;;4.60;99.90;;;;;;5094616;28;19950;-51
2021/11/20 06:44:02;;;;;;;;;;;4.60;99.90;;;;;;5098404;28;20397;-49
2021/11/20 06:46:29;;;;;;;;;;;4.30;99.90;;;;;;5094317;28;19928;-50
2021/11/20 06:48:57;;;;;;;;;;;4.20;99.90;;;;;;5093634;28;20357;-49
2021/11/20 06:51:24;;;;;;;;;;;4.30;99.90;;;;;;5094170;28;19932;-49
2021/11/20 06:53:51;;;;;;;;;;;4.40;99.90;;;;;;5094492;28;19928;-49
2021/11/20 06:56:27;;;;;;;;;;;4.50;99.90;;;;;;5094363;28;19978;-49
2021/11/20 06:59:08;;;;;;;;;;;4.40;99.90;;;;;;5094363;28;19928;-49
2021/11/20 07:01:36;;;;;;;;;;;4.40;99.90;;;;;;5093684;28;19924;-49
2021/11/20 07:04:05;;;;;;;;;;;4.40;99.90;;;;;;5094480;28;19924;-49
2021/11/20 07:06:33;;;;;;;;;;;4.40;99.90;;;;;;5093168;28;19928;-49
2021/11/20 07:09:00;;;;;;;;;;;4.50;99.90;;;;;;5094377;28;19969;-48
2021/11/20 07:11:28;;;;;;;;;;;4.50;99.90;;;;;;5094005;28;19977;-50
2021/11/20 07:13:55;;;;;;;;;;;4.50;99.90;;;;;;5094182;28;19931;-49
2021/11/20 07:16:23;;;;;;;;;;;4.40;99.90;;;;;;5093974;28;19924;-49
2021/11/20 07:18:50;;;;;;;;;;;4.20;99.90;;;;;;5094180;28;19928;-49
2021/11/20 07:21:22;;;;;;;;;;;4.20;99.90;;;;;;5093884;28;19924;-49
2021/11/20 07:23:49;;;;;;;;;;;4.20;99.90;;;;;;5093543;28;20011;-50
2021/11/20 07:26:16;;;;;;;;;;;4.30;99.90;;;;;;5084904;28;19924;-49
2021/11/20 07:28:43;;;;;;;;;;;4.40;99.90;;;;;;5092277;28;20444;-50
2021/11/20 07:31:10;;;;;;;;;;;4.40;99.90;;;;;;5103685;28;19977;-52
2021/11/20 07:33:36;;;;;;;;;;;4.50;99.90;;;;;;5114132;28;20389;-51
2021/11/20 07:36:04;;;;;;;;;;;4.50;99.90;;;;;;5096208;28;19932;-51
2021/11/20 07:38:34;;;;;;;;;;;4.50;99.90;;;;;;5093779;28;19925;-50
2021/11/20 07:41:01;;;;;;;;;;;4.60;99.90;;;;;;5093214;28;19977;-51
2021/11/20 07:43:31;;;;;;;;;;;4.60;99.90;;;;;;5093567;28;20413;-51
2021/11/20 07:45:58;;;;;;;;;;;4.60;99.90;;;;;;5093454;28;19931;-51
2021/11/20 07:48:26;;;;;;;;;;;4.70;99.90;;;;;;5093542;28;19924;-51
2021/11/20 07:50:53;;;;;;;;;;;4.80;99.90;;;;;;5093173;28;19924;-51
2021/11/20 07:53:20;;;;;;;;;;;4.70;99.90;;;;;;5092957;28;19935;-52
2021/11/20 07:55:48;;;;;;;;;;;4.70;99.90;;;;;;5095783;28;19957;-51
2021/11/20 07:58:16;;;;;;;;;;;4.60;99.90;;;;;;5098714;28;19977;-51
2021/11/20 08:00:44;;;;;;;;;;;4.60;99.90;;;;;;5104142;28;19924;-51
2021/11/20 08:03:12;;;;;;;;;;;4.70;99.90;;;;;;5100673;28;19923;-51
2021/11/20 08:05:39;;;;;;;;;;;4.70;99.90;;;;;;5101060;28;19924;-50
2021/11/20 08:08:09;;;;;;;;;;;4.80;99.90;;;;;;5100106;28;20294;-51
2021/11/20 08:10:36;;;;;;;;;;;4.30;99.90;;;;;;5096326;28;19976;-51
2021/11/20 08:13:04;;;;;;;;;;;4.30;99.90;;;;;;5093070;28;20037;-51
2021/11/20 08:15:32;;;;;;;;;;;4.40;99.90;;;;;;5091007;28;20279;-51
2021/11/20 08:18:00;;;;;;;;;;;4.60;99.90;;;;;;5092033;28;19928;-52
2021/11/20 08:20:29;;;;;;;;;;;4.70;99.90;;;;;;5090500;28;19977;-53
2021/11/20 08:22:55;;;;;;;;;;;4.70;99.90;;;;;;5091629;28;19946;-51
2021/11/20 08:25:24;;;;;;;;;;;4.50;99.90;;;;;;5091984;28;20454;-52
2021/11/20 08:27:52;;;;;;;;;;;4.40;99.90;;;;;;5072238;28;19932;-52
2021/11/20 08:30:22;;;;;;;;;;;4.40;99.90;;;;;;5089720;28;20443;-54
2021/11/20 08:32:50;;;;;;;;;;;4.60;99.90;;;;;;5092645;28;20011;-52
2021/11/20 08:35:17;;;;;;;;;;;4.70;99.90;;;;;;5092455;28;19977;-52
2021/11/20 08:37:44;;;;;;;;;;;4.80;99.90;;;;;;5092718;28;20368;-51
2021/11/20 08:40:13;;;;;;;;;;;4.90;99.90;;;;;;5092273;28;19928;-51
2021/11/20 08:42:41;;;;;;;;;;;4.80;99.90;;;;;;5072156;28;20367;-50
2021/11/20 08:45:10;;;;;;;;;;;4.90;99.90;;;;;;5072190;28;20015;-51
2021/11/20 08:47:38;;;;;;;;;;;5.00;99.90;;;;;;5074343;28;19958;-50
2021/11/20 08:50:05;;;;;;;;;;;4.90;99.90;;;;;;5091871;28;19932;-51
2021/11/20 08:52:31;;;;;;;;;;;5.10;99.90;;;;;;5079975;28;19928;-51
2021/11/20 08:54:59;;;;;;;;;;;4.90;99.90;;;;;;5086098;28;19969;-50
2021/11/20 08:57:26;;;;;;;;;;;5.00;99.90;;;;;;5086466;28;19928;-51
2021/11/20 08:59:52;;;;;;;;;;;5.10;99.90;;;;;;5090961;28;19970;-50
2021/11/20 09:02:21;;;;;;;;;;;4.90;99.90;;;;;;5101324;28;19924;-52
2021/11/20 09:04:51;;;;;;;;;;;5.00;99.90;;;;;;5112552;28;19957;-50
2021/11/20 09:07:20;;;;;;;;;;;5.10;99.90;;;;;;5095203;28;19924;-51
2021/11/20 09:09:48;;;;;;;;;;;4.90;99.90;;;;;;5091317;28;20374;-50
2021/11/20 09:12:18;;;;;;;;;;;4.90;99.90;;;;;;5076837;28;20498;-50
2021/11/20 09:14:46;;;;;;;;;;;5.00;99.90;;;;;;5071295;28;19932;-51
2021/11/20 09:17:13;;;;;;;;;;;5.20;99.90;;;;;;5070036;28;19986;-51
2021/11/20 09:19:42;;;;;;;;;;;5.20;99.90;;;;;;5071836;28;19925;-51
2021/11/20 09:22:10;;;;;;;;;;;5.30;99.90;;;;;;5089441;28;19977;-51
2021/11/20 09:24:41;;;;;;;;;;;5.20;99.90;;;;;;5091432;28;19959;-51
2021/11/20 09:27:09;;;;;;;;;;;5.30;99.90;;;;;;5091581;28;20408;-51
2021/11/20 09:29:36;;;;;;;;;;;5.50;99.90;;;;;;5091859;28;19928;-51
2021/11/20 09:32:03;;;;;;;;;;;5.20;99.90;;;;;;5091687;28;19924;-52
2021/11/20 09:34:30;;;;;;;;;;;5.20;99.90;;;;;;5091909;28;19970;-52
2021/11/20 09:36:58;;;;;;;;;;;5.20;99.90;;;;;;5091912;28;19924;-51
2021/11/20 09:39:27;;;;;;;;;;;5.00;99.90;;;;;;5091870;28;20049;-51
2021/11/20 09:42:01;;;;;;;;;;;5.20;99.90;;;;;;5079562;28;19954;-51
2021/11/20 09:44:29;;;;;;;;;;;5.10;99.90;;;;;;5073373;28;19986;-51
2021/11/20 09:47:01;;;;;;;;;;;5.30;99.90;;;;;;5082600;28;19970;-52
2021/11/20 09:49:31;;;;;;;;;;;5.50;99.90;;;;;;5072212;28;19978;-52
2021/11/20 09:51:58;;;;;;;;;;;5.40;99.90;;;;;;5071021;28;20386;-51
2021/11/20 09:54:28;;;;;;;;;;;5.40;99.90;;;;;;5071470;28;20412;-51
2021/11/20 09:56:58;;;;;;;;;;;5.50;99.90;;;;;;5071486;28;19925;-51
2021/11/20 09:59:30;;;;;;;;;;;5.50;99.90;;;;;;5071285;28;19982;-51
2021/11/20 10:02:00;;;;;;;;;;;5.40;99.90;;;;;;5070936;28;19924;-52
2021/11/20 10:04:29;;;;;;;;;;;5.00;99.90;;;;;;5087794;28;19924;-51
2021/11/20 10:07:07;;;;;;;;;;;5.00;99.90;;;;;;5091479;28;19985;-51
2021/11/20 10:09:36;;;;;;;;;;;5.10;99.90;;;;;;5091741;28;19930;-51
2021/11/20 10:12:05;;;;;;;;;;;5.00;99.90;;;;;;5091389;28;19969;-52
2021/11/20 10:14:36;;;;;;;;;;;5.00;99.90;;;;;;5089669;28;19924;-51
2021/11/20 10:17:11;;;;;;;;;;;4.90;99.90;;;;;;5091513;28;19928;-52
2021/11/20 10:19:42;;;;;;;;;;;4.90;99.90;;;;;;5091302;28;19924;-51
2021/11/20 10:22:14;;;;;;;;;;;4.90;99.90;;;;;;5090350;28;19931;-50
2021/11/20 10:24:47;;;;;;;;;;;5.10;99.90;;;;;;5116429;22;19928;-55
2021/11/20 10:27:20;;;;;;;;;;;5.10;99.90;;;;;;5095255;28;19950;-54
2021/11/20 10:29:53;;;;;;;;;;;5.20;99.90;;;;;;5094435;28;19924;-53
2021/11/20 10:32:21;;;;;;;;;;;5.00;99.90;;;;;;5095058;28;20493;-53
2021/11/20 10:34:50;;;;;;;;;;;5.00;99.90;;;;;;5087612;28;19928;-53
2021/11/20 10:37:18;;;;;;;;;;;5.10;99.90;;;;;;5074879;28;19931;-53
2021/11/20 10:39:49;;;;;;;;;;;5.30;99.90;;;;;;5080627;28;19928;-53
2021/11/20 10:42:17;;;;;;;;;;;5.50;99.90;;;;;;5094645;28;19970;-53
2021/11/20 10:44:46;;;;;;;;;;;5.60;99.90;;;;;;5093914;28;19924;-53
2021/11/20 10:47:27;;;;;;;;;;;5.60;99.90;;;;;;5082808;28;20481;-53
2021/11/20 10:50:00;;;;;;;;;;;5.30;99.90;;;;;;5093875;28;19924;-53
2021/11/20 10:52:34;;;;;;;;;;;5.30;99.90;;;;;;5087251;28;19924;-53
2021/11/20 10:55:24;;;;;;;;;;;5.40;99.90;;;;;;5091388;28;19978;-53
2021/11/20 10:58:11;;;;;;;;;;;5.70;99.90;;;;;;5076169;28;19924;-52
2021/11/20 11:00:51;;;;;;;;;;;5.70;99.90;;;;;;5075760;28;19928;-52
2021/11/20 11:03:38;;;;;;;;;;;5.60;99.90;;;;;;5092904;28;19989;-52
2021/11/20 11:06:38;;;;;;;;;;;5.60;99.90;;;;;;5093510;28;19928;-53
2021/11/20 11:09:15;;;;;;;;;;;5.50;99.90;;;;;;5014768;28;20100;-52
2021/11/20 11:11:46;;;;;;;;;;;5.30;99.90;;;;;;5011461;28;19964;-52
2021/11/20 11:14:32;;;;;;;;;;;5.40;99.90;;;;;;5062068;28;19924;-52
2021/11/20 11:17:03;;;;;;;;;;;5.40;99.90;;;;;;5092331;28;19924;-52
2021/11/20 11:19:34;;;;;;;;;;;5.40;99.90;;;;;;5079051;28;19931;-52
2021/11/20 11:22:03;;;;;;;;;;;5.50;99.90;;;;;;5089734;28;20305;-51
2021/11/20 11:24:39;;;;;;;;;;;5.70;99.90;;;;;;5091349;28;19971;-50
2021/11/20 11:27:10;;;;;;;;;;;5.60;99.90;;;;;;5093912;28;20314;-51
2021/11/20 11:29:52;;;;;;;;;;;5.60;99.90;;;;;;5088228;28;20481;-52
2021/11/20 11:32:21;;;;;;;;;;;5.50;99.90;;;;;;5071816;28;19924;-52
2021/11/20 11:34:50;;;;;;;;;;;5.60;99.90;;;;;;5081346;28;19977;-52
2021/11/20 11:37:23;;;;;;;;;;;5.40;99.90;;;;;;5074634;28;20341;-52
2021/11/20 11:39:52;;;;;;;;;;;5.60;99.90;;;;;;5084946;28;19929;-52
2021/11/20 11:42:38;;;;;;;;;;;5.50;99.90;;;;;;5091601;28;19985;-52
2021/11/20 11:45:08;;;;;;;;;;;5.60;99.90;;;;;;5088894;28;19946;-52
2021/11/20 11:47:54;;;;;;;;;;;5.70;99.90;;;;;;5090365;28;19924;-50
2021/11/20 11:50:27;;;;;;;;;;;5.70;99.90;;;;;;5091012;28;19977;-50
2021/11/20 11:52:58;;;;;;;;;;;5.60;99.90;;;;;;5089649;28;19928;-51
2021/11/20 11:55:42;;;;;;;;;;;5.50;99.90;;;;;;5091259;28;19924;-51
2021/11/20 11:58:18;;;;;;;;;;;5.50;99.90;;;;;;5091254;28;19931;-50
2021/11/20 12:00:56;;;;;;;;;;;5.50;99.90;;;;;;5092074;28;19924;-50
2021/11/20 12:03:30;;;;;;;;;;;5.60;99.90;;;;;;5086638;28;20352;-50
2021/11/20 12:06:07;;;;;;;;;;;5.80;99.90;;;;;;5072387;28;19978;-50
2021/11/20 12:08:36;;;;;;;;;;;5.90;99.90;;;;;;5072917;28;20447;-49
2021/11/20 12:11:05;;;;;;;;;;;6.10;99.90;;;;;;5074981;28;19924;-51
2021/11/20 12:13:34;;;;;;;;;;;5.80;99.90;;;;;;5078957;28;19928;-50
2021/11/20 12:16:04;;;;;;;;;;;5.90;99.90;;;;;;5089307;28;19970;-50
2021/11/20 12:18:37;;;;;;;;;;;6.00;99.90;;;;;;5073586;28;19924;-51
2021/11/20 12:21:15;;;;;;;;;;;5.80;99.90;;;;;;5089355;28;20007;-51
2021/11/20 12:23:49;;;;;;;;;;;5.80;99.90;;;;;;5091843;28;19928;-50
2021/11/20 12:26:19;;;;;;;;;;;5.90;99.90;;;;;;5085568;28;20330;-51
2021/11/20 12:28:59;;;;;;;;;;;5.70;99.90;;;;;;5091813;28;19950;-50
2021/11/20 12:31:46;;;;;;;;;;;5.50;99.90;;;;;;5078391;28;20709;-51
2021/11/20 12:34:28;;;;;;;;;;;5.60;99.90;;;;;;5080389;28;19932;-50
2021/11/20 12:37:11;;;;;;;;;;;5.60;99.90;;;;;;5077489;28;19924;-50
2021/11/20 12:39:51;;;;;;;;;;;5.30;99.90;;;;;;5072319;28;19924;-51
2021/11/20 12:42:23;;;;;;;;;;;5.70;99.90;;;;;;5082232;28;20383;-51
2021/11/20 12:44:56;;;;;;;;;;;5.50;99.90;;;;;;5090158;28;20478;-50
2021/11/20 12:47:28;;;;;;;;;;;5.60;99.90;;;;;;5071580;28;19931;-51
2021/11/20 12:50:04;;;;;;;;;;;5.70;99.90;;;;;;5081516;28;19927;-51
2021/11/20 12:52:32;;;;;;;;;;;5.70;99.90;;;;;;5092070;28;19981;-51
2021/11/20 12:55:01;;;;;;;;;;;5.60;99.90;;;;;;5091967;28;20294;-52
2021/11/20 12:57:31;;;;;;;;;;;5.60;99.90;;;;;;5092038;28;20523;-52
2021/11/20 13:00:10;;;;;;;;;;;5.90;99.90;;;;;;5092178;28;19924;-51
2021/11/20 13:02:42;;;;;;;;;;;5.80;99.90;;;;;;5091679;28;20293;-51
2021/11/20 13:05:12;;;;;;;;;;;6.00;99.90;;;;;;5091990;28;20306;-50
2021/11/20 13:07:46;;;;;;;;;;;5.90;99.90;;;;;;5091737;28;19924;-51
2021/11/20 13:10:18;;;;;;;;;;;5.60;99.90;;;;;;5092165;28;19985;-50
2021/11/20 13:12:46;;;;;;;;;;;5.70;99.90;;;;;;5091088;28;20039;-52
2021/11/20 13:15:22;;;;;;;;;;;5.60;99.90;;;;;;5092043;28;19928;-50
2021/11/20 13:17:51;;;;;;;;;;;5.60;99.90;;;;;;5091950;28;19989;-51
2021/11/20 13:20:22;;;;;;;;;;;5.60;99.90;;;;;;5092059;28;19924;-55
2021/11/20 13:23:01;;;;;;;;;;;5.60;99.90;;;;;;5091810;28;19931;-54
2021/11/20 13:25:27;;;;;;;;;;;5.60;99.90;;;;;;5091810;28;20019;-54
2021/11/20 13:27:57;;;;;;;;;;;5.50;99.90;;;;;;5091768;28;20305;-53
2021/11/20 13:30:26;;;;;;;;;;;5.70;99.90;;;;;;5091511;28;19928;-54
2021/11/20 13:32:54;;;;;;;;;;;5.50;99.90;;;;;;5091980;28;20061;-54
2021/11/20 13:35:22;;;;;;;;;;;5.60;99.90;;;;;;5091860;28;19969;-54
2021/11/20 13:37:54;;;;;;;;;;;5.50;99.90;;;;;;5091869;28;19924;-51
2021/11/20 13:40:22;;;;;;;;;;;5.30;99.90;;;;;;5091190;28;19924;-51
2021/11/20 13:42:49;;;;;;;;;;;5.20;99.90;;;;;;5091779;28;19968;-52
2021/11/20 13:45:17;;;;;;;;;;;5.30;99.90;;;;;;5091797;28;19932;-52
2021/11/20 13:47:45;;;;;;;;;;;5.00;99.90;;;;;;5091892;28;19984;-51
2021/11/20 13:50:12;;;;;;;;;;;5.10;99.90;;;;;;5090672;28;19924;-51
2021/11/20 13:52:39;;;;;;;;;;;5.20;99.90;;;;;;5091598;28;19985;-51
2021/11/20 13:55:06;;;;;;;;;;;5.30;99.90;;;;;;5091117;28;20684;-51
2021/11/20 13:57:33;;;;;;;;;;;5.50;99.90;;;;;;5075487;28;19925;-51
2021/11/20 14:00:02;;;;;;;;;;;5.60;99.90;;;;;;5094340;28;19924;-52
2021/11/20 14:02:30;;;;;;;;;;;5.50;99.90;;;;;;5095227;28;19924;-52
2021/11/20 14:05:01;;;;;;;;;;;5.60;99.90;;;;;;5094853;28;19924;-52
2021/11/20 14:07:34;;;;;;;;;;;5.60;99.90;;;;;;5091046;28;19925;-51
2021/11/20 14:10:02;;;;;;;;;;;5.40;99.90;;;;;;5075075;28;20405;-52
2021/11/20 14:12:37;;;;;;;;;;;5.50;99.90;;;;;;5086762;28;20344;-51
2021/11/20 14:15:05;;;;;;;;;;;5.60;99.90;;;;;;5093995;28;19970;-52
2021/11/20 14:17:35;;;;;;;;;;;5.80;99.90;;;;;;5095206;28;20340;-52
2021/11/20 14:20:06;;;;;;;;;;;5.70;99.90;;;;;;5095161;28;20408;-51
2021/11/20 14:22:37;;;;;;;;;;;5.80;99.90;;;;;;5095236;28;19931;-52
2021/11/20 14:25:04;;;;;;;;;;;5.70;99.90;;;;;;5095094;28;20481;-52
2021/11/20 14:27:32;;;;;;;;;;;5.60;99.90;;;;;;5094934;28;19989;-52
2021/11/20 14:30:00;;;;;;;;;;;5.70;99.90;;;;;;5081011;28;19925;-52
2021/11/20 14:32:28;;;;;;;;;;;5.50;99.90;;;;;;5074561;28;19970;-52
2021/11/20 14:34:56;;;;;;;;;;;5.50;99.90;;;;;;5074663;28;20386;-52
2021/11/20 14:37:26;;;;;;;;;;;5.50;99.90;;;;;;5074932;28;19924;-52
2021/11/20 14:39:54;;;;;;;;;;;5.40;99.90;;;;;;5074653;28;20019;-52
2021/11/20 14:42:22;;;;;;;;;;;5.40;99.90;;;;;;5083845;28;20026;-52
2021/11/20 14:44:50;;;;;;;;;;;5.10;99.90;;;;;;5094613;28;19936;-52